sensor_id;sensor_type;location;lat;lon;timestamp;P1;durP1;ratioP1;P2;durP2;ratioP2
60292;SDS011;52402;52.670;6.750;2023-07-09T00:01:12;0.20;;;0.20;;
60292;SDS011;52402;52.670;6.750;2023-07-09T00:03:39;0.20;;;0.20;;
60292;SDS011;52402;52.670;6.750;2023-07-09T00:06:07;0.20;;;0.20;;
60292;SDS011;52402;52.670;6.750;2023-07-09T00:08:33;0.20;;;0.20;;
60292;SDS011;52402;52.670;6.750;2023-07-09T00:10:59;0.20;;;0.20;;
60292;SDS011;52402;52.670;6.750;2023-07-09T00:13:25;0.20;;;0.20;;
60292;SDS011;52402;52.670;6.750;2023-07-09T00:15:52;0.20;;;0.20;;
60292;SDS011;52402;52.670;6.750;2023-07-09T00:18:22;0.20;;;0.20;;
60292;SDS011;52402;52.670;6.750;2023-07-09T00:20:47;0.20;;;0.20;;
60292;SDS011;52402;52.670;6.750;2023-07-09T00:23:13;0.20;;;0.20;;
60292;SDS011;52402;52.670;6.750;2023-07-09T00:25:48;0.20;;;0.20;;
60292;SDS011;52402;52.670;6.750;2023-07-09T00:28:14;0.20;;;0.20;;
60292;SDS011;52402;52.670;6.750;2023-07-09T00:30:46;0.20;;;0.20;;
60292;SDS011;52402;52.670;6.750;2023-07-09T00:33:13;0.20;;;0.20;;
60292;SDS011;52402;52.670;6.750;2023-07-09T00:35:41;0.15;;;0.15;;
60292;SDS011;52402;52.670;6.750;2023-07-09T00:38:12;0.20;;;0.20;;
60292;SDS011;52402;52.670;6.750;2023-07-09T00:40:44;0.20;;;0.20;;
60292;SDS011;52402;52.670;6.750;2023-07-09T00:43:21;0.20;;;0.20;;
60292;SDS011;52402;52.670;6.750;2023-07-09T00:46:07;0.20;;;0.20;;
60292;SDS011;52402;52.670;6.750;2023-07-09T00:48:42;0.20;;;0.20;;
60292;SDS011;52402;52.670;6.750;2023-07-09T00:51:12;0.20;;;0.20;;
60292;SDS011;52402;52.670;6.750;2023-07-09T00:53:40;0.20;;;0.20;;
60292;SDS011;52402;52.670;6.750;2023-07-09T00:56:12;0.10;;;0.10;;
60292;SDS011;52402;52.670;6.750;2023-07-09T00:58:45;0.20;;;0.20;;
60292;SDS011;52402;52.670;6.750;2023-07-09T01:01:14;0.20;;;0.20;;
60292;SDS011;52402;52.670;6.750;2023-07-09T01:03:53;0.20;;;0.20;;
60292;SDS011;52402;52.670;6.750;2023-07-09T01:06:27;0.20;;;0.20;;
60292;SDS011;52402;52.670;6.750;2023-07-09T01:08:57;0.20;;;0.20;;
60292;SDS011;52402;52.670;6.750;2023-07-09T01:11:25;0.20;;;0.20;;
60292;SDS011;52402;52.670;6.750;2023-07-09T01:13:52;0.20;;;0.20;;
60292;SDS011;52402;52.670;6.750;2023-07-09T01:16:20;0.20;;;0.20;;
60292;SDS011;52402;52.670;6.750;2023-07-09T01:18:51;0.20;;;0.20;;
60292;SDS011;52402;52.670;6.750;2023-07-09T01:21:17;0.15;;;0.15;;
60292;SDS011;52402;52.670;6.750;2023-07-09T01:23:43;0.20;;;0.20;;
60292;SDS011;52402;52.670;6.750;2023-07-09T01:26:11;0.20;;;0.20;;
60292;SDS011;52402;52.670;6.750;2023-07-09T01:28:54;0.20;;;0.20;;
60292;SDS011;52402;52.670;6.750;2023-07-09T01:31:20;0.20;;;0.20;;
60292;SDS011;52402;52.670;6.750;2023-07-09T01:33:48;0.20;;;0.20;;
60292;SDS011;52402;52.670;6.750;2023-07-09T01:36:16;0.20;;;0.20;;
60292;SDS011;52402;52.670;6.750;2023-07-09T01:38:48;0.20;;;0.20;;
60292;SDS011;52402;52.670;6.750;2023-07-09T01:41:15;0.20;;;0.20;;
60292;SDS011;52402;52.670;6.750;2023-07-09T01:43:41;0.20;;;0.20;;
60292;SDS011;52402;52.670;6.750;2023-07-09T01:46:08;0.20;;;0.20;;
60292;SDS011;52402;52.670;6.750;2023-07-09T01:48:35;0.20;;;0.20;;
60292;SDS011;52402;52.670;6.750;2023-07-09T01:51:09;0.20;;;0.20;;
60292;SDS011;52402;52.670;6.750;2023-07-09T01:53:37;0.20;;;0.20;;
60292;SDS011;52402;52.670;6.750;2023-07-09T01:56:04;0.30;;;0.30;;
60292;SDS011;52402;52.670;6.750;2023-07-09T01:58:32;0.20;;;0.20;;
60292;SDS011;52402;52.670;6.750;2023-07-09T02:00:59;0.20;;;0.20;;
60292;SDS011;52402;52.670;6.750;2023-07-09T02:03:25;0.20;;;0.20;;
60292;SDS011;52402;52.670;6.750;2023-07-09T02:05:52;0.20;;;0.20;;
60292;SDS011;52402;52.670;6.750;2023-07-09T02:08:18;0.20;;;0.20;;
60292;SDS011;52402;52.670;6.750;2023-07-09T02:10:44;0.20;;;0.20;;
60292;SDS011;52402;52.670;6.750;2023-07-09T02:13:13;0.20;;;0.20;;
60292;SDS011;52402;52.670;6.750;2023-07-09T02:15:39;0.20;;;0.20;;
60292;SDS011;52402;52.670;6.750;2023-07-09T02:18:08;0.20;;;0.20;;
60292;SDS011;52402;52.670;6.750;2023-07-09T02:20:40;0.30;;;0.30;;
60292;SDS011;52402;52.670;6.750;2023-07-09T02:23:06;0.20;;;0.20;;
60292;SDS011;52402;52.670;6.750;2023-07-09T02:25:33;0.20;;;0.20;;
60292;SDS011;52402;52.670;6.750;2023-07-09T02:27:59;0.20;;;0.20;;
60292;SDS011;52402;52.670;6.750;2023-07-09T02:30:25;0.20;;;0.20;;
60292;SDS011;52402;52.670;6.750;2023-07-09T02:32:50;0.30;;;0.30;;
60292;SDS011;52402;52.670;6.750;2023-07-09T02:35:19;0.20;;;0.20;;
60292;SDS011;52402;52.670;6.750;2023-07-09T02:37:45;0.20;;;0.20;;
60292;SDS011;52402;52.670;6.750;2023-07-09T02:40:11;0.13;;;0.13;;
60292;SDS011;52402;52.670;6.750;2023-07-09T02:42:38;0.20;;;0.20;;
60292;SDS011;52402;52.670;6.750;2023-07-09T02:45:04;0.20;;;0.20;;
60292;SDS011;52402;52.670;6.750;2023-07-09T02:47:30;0.20;;;0.20;;
60292;SDS011;52402;52.670;6.750;2023-07-09T02:49:55;0.20;;;0.20;;
60292;SDS011;52402;52.670;6.750;2023-07-09T02:52:21;0.20;;;0.20;;
60292;SDS011;52402;52.670;6.750;2023-07-09T02:54:46;0.20;;;0.20;;
60292;SDS011;52402;52.670;6.750;2023-07-09T02:57:12;0.20;;;0.20;;
60292;SDS011;52402;52.670;6.750;2023-07-09T02:59:38;0.20;;;0.20;;
60292;SDS011;52402;52.670;6.750;2023-07-09T03:02:04;0.20;;;0.20;;
60292;SDS011;52402;52.670;6.750;2023-07-09T03:04:30;0.20;;;0.20;;
60292;SDS011;52402;52.670;6.750;2023-07-09T03:06:58;0.20;;;0.20;;
60292;SDS011;52402;52.670;6.750;2023-07-09T03:09:25;0.20;;;0.20;;
60292;SDS011;52402;52.670;6.750;2023-07-09T03:11:50;0.20;;;0.20;;
60292;SDS011;52402;52.670;6.750;2023-07-09T03:14:16;0.20;;;0.20;;
60292;SDS011;52402;52.670;6.750;2023-07-09T03:16:41;0.20;;;0.20;;
60292;SDS011;52402;52.670;6.750;2023-07-09T03:19:07;0.20;;;0.20;;
60292;SDS011;52402;52.670;6.750;2023-07-09T03:21:33;0.20;;;0.20;;
60292;SDS011;52402;52.670;6.750;2023-07-09T03:23:59;0.20;;;0.20;;
60292;SDS011;52402;52.670;6.750;2023-07-09T03:26:25;0.20;;;0.20;;
60292;SDS011;52402;52.670;6.750;2023-07-09T03:28:51;0.20;;;0.20;;
60292;SDS011;52402;52.670;6.750;2023-07-09T03:31:17;0.20;;;0.20;;
60292;SDS011;52402;52.670;6.750;2023-07-09T03:33:45;0.22;;;0.22;;
60292;SDS011;52402;52.670;6.750;2023-07-09T03:36:12;0.20;;;0.20;;
60292;SDS011;52402;52.670;6.750;2023-07-09T03:38:38;0.20;;;0.20;;
60292;SDS011;52402;52.670;6.750;2023-07-09T03:41:03;0.20;;;0.20;;
60292;SDS011;52402;52.670;6.750;2023-07-09T03:43:29;0.20;;;0.20;;
60292;SDS011;52402;52.670;6.750;2023-07-09T03:45:55;0.20;;;0.20;;
60292;SDS011;52402;52.670;6.750;2023-07-09T03:48:20;0.20;;;0.20;;
60292;SDS011;52402;52.670;6.750;2023-07-09T03:50:46;0.20;;;0.20;;
60292;SDS011;52402;52.670;6.750;2023-07-09T03:53:13;0.20;;;0.20;;
60292;SDS011;52402;52.670;6.750;2023-07-09T03:55:40;0.20;;;0.20;;
60292;SDS011;52402;52.670;6.750;2023-07-09T03:58:05;0.20;;;0.20;;
60292;SDS011;52402;52.670;6.750;2023-07-09T04:00:32;0.20;;;0.20;;
60292;SDS011;52402;52.670;6.750;2023-07-09T04:02:58;0.20;;;0.20;;
60292;SDS011;52402;52.670;6.750;2023-07-09T04:05:24;0.20;;;0.20;;
60292;SDS011;52402;52.670;6.750;2023-07-09T04:07:51;0.20;;;0.20;;
60292;SDS011;52402;52.670;6.750;2023-07-09T04:10:17;0.20;;;0.20;;
60292;SDS011;52402;52.670;6.750;2023-07-09T04:12:43;0.30;;;0.30;;
60292;SDS011;52402;52.670;6.750;2023-07-09T04:15:09;0.10;;;0.10;;
60292;SDS011;52402;52.670;6.750;2023-07-09T04:17:37;0.20;;;0.20;;
60292;SDS011;52402;52.670;6.750;2023-07-09T04:20:04;0.20;;;0.20;;
60292;SDS011;52402;52.670;6.750;2023-07-09T04:22:31;0.20;;;0.20;;
60292;SDS011;52402;52.670;6.750;2023-07-09T04:24:57;0.20;;;0.20;;
60292;SDS011;52402;52.670;6.750;2023-07-09T04:27:23;0.20;;;0.20;;
60292;SDS011;52402;52.670;6.750;2023-07-09T04:29:52;0.30;;;0.30;;
60292;SDS011;52402;52.670;6.750;2023-07-09T04:32:21;0.20;;;0.20;;
60292;SDS011;52402;52.670;6.750;2023-07-09T04:34:49;0.20;;;0.20;;
60292;SDS011;52402;52.670;6.750;2023-07-09T04:37:14;0.30;;;0.30;;
60292;SDS011;52402;52.670;6.750;2023-07-09T04:39:44;0.20;;;0.20;;
60292;SDS011;52402;52.670;6.750;2023-07-09T04:42:11;0.20;;;0.20;;
60292;SDS011;52402;52.670;6.750;2023-07-09T04:44:38;0.20;;;0.20;;
60292;SDS011;52402;52.670;6.750;2023-07-09T04:47:04;0.10;;;0.10;;
60292;SDS011;52402;52.670;6.750;2023-07-09T04:49:30;0.20;;;0.20;;
60292;SDS011;52402;52.670;6.750;2023-07-09T04:51:55;0.20;;;0.20;;
60292;SDS011;52402;52.670;6.750;2023-07-09T04:54:22;0.20;;;0.20;;
60292;SDS011;52402;52.670;6.750;2023-07-09T04:56:48;0.20;;;0.20;;
60292;SDS011;52402;52.670;6.750;2023-07-09T04:59:14;0.20;;;0.20;;
60292;SDS011;52402;52.670;6.750;2023-07-09T05:01:40;0.20;;;0.20;;
60292;SDS011;52402;52.670;6.750;2023-07-09T05:04:06;0.20;;;0.20;;
60292;SDS011;52402;52.670;6.750;2023-07-09T05:06:32;0.20;;;0.20;;
60292;SDS011;52402;52.670;6.750;2023-07-09T05:08:58;0.20;;;0.20;;
60292;SDS011;52402;52.670;6.750;2023-07-09T05:11:24;0.30;;;0.30;;
60292;SDS011;52402;52.670;6.750;2023-07-09T05:13:50;0.20;;;0.20;;
60292;SDS011;52402;52.670;6.750;2023-07-09T05:16:15;0.28;;;0.28;;
60292;SDS011;52402;52.670;6.750;2023-07-09T05:18:42;0.20;;;0.20;;
60292;SDS011;52402;52.670;6.750;2023-07-09T05:21:07;0.20;;;0.20;;
60292;SDS011;52402;52.670;6.750;2023-07-09T05:23:33;0.20;;;0.20;;
60292;SDS011;52402;52.670;6.750;2023-07-09T05:25:59;0.30;;;0.30;;
60292;SDS011;52402;52.670;6.750;2023-07-09T05:28:26;0.25;;;0.25;;
60292;SDS011;52402;52.670;6.750;2023-07-09T05:30:53;0.30;;;0.30;;
60292;SDS011;52402;52.670;6.750;2023-07-09T05:33:18;0.20;;;0.20;;
60292;SDS011;52402;52.670;6.750;2023-07-09T05:35:44;0.20;;;0.20;;
60292;SDS011;52402;52.670;6.750;2023-07-09T05:38:11;0.20;;;0.20;;
60292;SDS011;52402;52.670;6.750;2023-07-09T05:40:37;0.20;;;0.20;;
60292;SDS011;52402;52.670;6.750;2023-07-09T05:43:03;0.20;;;0.20;;
60292;SDS011;52402;52.670;6.750;2023-07-09T05:45:30;0.25;;;0.25;;
60292;SDS011;52402;52.670;6.750;2023-07-09T05:47:56;0.20;;;0.20;;
60292;SDS011;52402;52.670;6.750;2023-07-09T05:50:22;0.20;;;0.20;;
60292;SDS011;52402;52.670;6.750;2023-07-09T05:52:48;0.20;;;0.20;;
60292;SDS011;52402;52.670;6.750;2023-07-09T05:55:14;0.20;;;0.20;;
60292;SDS011;52402;52.670;6.750;2023-07-09T05:57:39;0.20;;;0.20;;
60292;SDS011;52402;52.670;6.750;2023-07-09T06:00:05;0.20;;;0.20;;
60292;SDS011;52402;52.670;6.750;2023-07-09T06:02:33;0.20;;;0.20;;
60292;SDS011;52402;52.670;6.750;2023-07-09T06:04:59;0.10;;;0.10;;
60292;SDS011;52402;52.670;6.750;2023-07-09T06:07:25;0.20;;;0.20;;
60292;SDS011;52402;52.670;6.750;2023-07-09T06:09:50;0.20;;;0.20;;
60292;SDS011;52402;52.670;6.750;2023-07-09T06:12:17;0.20;;;0.20;;
60292;SDS011;52402;52.670;6.750;2023-07-09T06:14:44;0.20;;;0.20;;
60292;SDS011;52402;52.670;6.750;2023-07-09T06:17:10;0.20;;;0.20;;
60292;SDS011;52402;52.670;6.750;2023-07-09T06:19:38;0.20;;;0.20;;
60292;SDS011;52402;52.670;6.750;2023-07-09T06:22:04;0.20;;;0.20;;
60292;SDS011;52402;52.670;6.750;2023-07-09T06:24:30;0.20;;;0.20;;
60292;SDS011;52402;52.670;6.750;2023-07-09T06:26:56;0.20;;;0.20;;
60292;SDS011;52402;52.670;6.750;2023-07-09T06:29:21;0.20;;;0.20;;
60292;SDS011;52402;52.670;6.750;2023-07-09T06:31:47;0.30;;;0.30;;
60292;SDS011;52402;52.670;6.750;2023-07-09T06:34:13;0.20;;;0.20;;
60292;SDS011;52402;52.670;6.750;2023-07-09T06:36:39;0.20;;;0.20;;
60292;SDS011;52402;52.670;6.750;2023-07-09T06:39:04;0.20;;;0.20;;
60292;SDS011;52402;52.670;6.750;2023-07-09T06:41:30;0.20;;;0.20;;
60292;SDS011;52402;52.670;6.750;2023-07-09T06:43:57;0.20;;;0.20;;
60292;SDS011;52402;52.670;6.750;2023-07-09T06:46:23;0.20;;;0.20;;
60292;SDS011;52402;52.670;6.750;2023-07-09T06:48:49;0.20;;;0.20;;
60292;SDS011;52402;52.670;6.750;2023-07-09T06:51:14;0.20;;;0.20;;
60292;SDS011;52402;52.670;6.750;2023-07-09T06:53:40;0.25;;;0.25;;
60292;SDS011;52402;52.670;6.750;2023-07-09T06:56:07;0.20;;;0.20;;
60292;SDS011;52402;52.670;6.750;2023-07-09T06:58:36;0.20;;;0.20;;
60292;SDS011;52402;52.670;6.750;2023-07-09T07:01:02;0.20;;;0.20;;
60292;SDS011;52402;52.670;6.750;2023-07-09T07:03:29;0.20;;;0.20;;
60292;SDS011;52402;52.670;6.750;2023-07-09T07:05:57;0.20;;;0.20;;
60292;SDS011;52402;52.670;6.750;2023-07-09T07:08:23;0.20;;;0.20;;
60292;SDS011;52402;52.670;6.750;2023-07-09T07:10:50;0.20;;;0.20;;
60292;SDS011;52402;52.670;6.750;2023-07-09T07:13:26;0.20;;;0.20;;
60292;SDS011;52402;52.670;6.750;2023-07-09T07:16:03;0.20;;;0.20;;
60292;SDS011;52402;52.670;6.750;2023-07-09T07:18:30;0.30;;;0.30;;
60292;SDS011;52402;52.670;6.750;2023-07-09T07:20:56;0.20;;;0.20;;
60292;SDS011;52402;52.670;6.750;2023-07-09T07:23:21;0.20;;;0.20;;
60292;SDS011;52402;52.670;6.750;2023-07-09T07:25:48;0.30;;;0.30;;
60292;SDS011;52402;52.670;6.750;2023-07-09T07:28:17;0.20;;;0.20;;
60292;SDS011;52402;52.670;6.750;2023-07-09T07:30:43;0.20;;;0.20;;
60292;SDS011;52402;52.670;6.750;2023-07-09T07:33:10;0.20;;;0.20;;
60292;SDS011;52402;52.670;6.750;2023-07-09T07:35:36;0.20;;;0.20;;
60292;SDS011;52402;52.670;6.750;2023-07-09T07:38:02;0.20;;;0.20;;
60292;SDS011;52402;52.670;6.750;2023-07-09T07:40:28;0.20;;;0.20;;
60292;SDS011;52402;52.670;6.750;2023-07-09T07:42:53;0.20;;;0.20;;
60292;SDS011;52402;52.670;6.750;2023-07-09T07:45:20;0.20;;;0.20;;
60292;SDS011;52402;52.670;6.750;2023-07-09T07:47:46;0.20;;;0.20;;
60292;SDS011;52402;52.670;6.750;2023-07-09T07:50:13;0.20;;;0.20;;
60292;SDS011;52402;52.670;6.750;2023-07-09T07:52:39;0.20;;;0.20;;
60292;SDS011;52402;52.670;6.750;2023-07-09T07:55:05;0.10;;;0.10;;
60292;SDS011;52402;52.670;6.750;2023-07-09T07:57:32;0.20;;;0.20;;
60292;SDS011;52402;52.670;6.750;2023-07-09T07:59:57;0.20;;;0.20;;
60292;SDS011;52402;52.670;6.750;2023-07-09T08:02:23;0.20;;;0.20;;
60292;SDS011;52402;52.670;6.750;2023-07-09T08:04:49;0.22;;;0.22;;
60292;SDS011;52402;52.670;6.750;2023-07-09T08:07:16;0.30;;;0.30;;
60292;SDS011;52402;52.670;6.750;2023-07-09T08:09:43;0.20;;;0.20;;
60292;SDS011;52402;52.670;6.750;2023-07-09T08:12:10;0.20;;;0.20;;
60292;SDS011;52402;52.670;6.750;2023-07-09T08:14:37;0.20;;;0.20;;
60292;SDS011;52402;52.670;6.750;2023-07-09T08:17:04;0.30;;;0.30;;
60292;SDS011;52402;52.670;6.750;2023-07-09T08:19:30;0.20;;;0.20;;
60292;SDS011;52402;52.670;6.750;2023-07-09T08:21:56;0.32;;;0.32;;
60292;SDS011;52402;52.670;6.750;2023-07-09T08:24:22;0.20;;;0.20;;
60292;SDS011;52402;52.670;6.750;2023-07-09T08:26:47;0.20;;;0.20;;
60292;SDS011;52402;52.670;6.750;2023-07-09T08:29:13;0.30;;;0.30;;
60292;SDS011;52402;52.670;6.750;2023-07-09T08:31:39;0.30;;;0.30;;
60292;SDS011;52402;52.670;6.750;2023-07-09T08:34:07;0.20;;;0.20;;
60292;SDS011;52402;52.670;6.750;2023-07-09T08:36:32;0.30;;;0.30;;
60292;SDS011;52402;52.670;6.750;2023-07-09T08:39:00;0.20;;;0.20;;
60292;SDS011;52402;52.670;6.750;2023-07-09T08:41:40;0.20;;;0.20;;
60292;SDS011;52402;52.670;6.750;2023-07-09T08:50:10;0.30;;;0.30;;
60292;SDS011;52402;52.670;6.750;2023-07-09T08:52:13;0.20;;;0.20;;
60292;SDS011;52402;52.670;6.750;2023-07-09T08:54:50;0.30;;;0.30;;
60292;SDS011;52402;52.670;6.750;2023-07-09T08:57:19;0.28;;;0.28;;
60292;SDS011;52402;52.670;6.750;2023-07-09T08:59:53;0.20;;;0.20;;
60292;SDS011;52402;52.670;6.750;2023-07-09T09:02:27;0.30;;;0.30;;
60292;SDS011;52402;52.670;6.750;2023-07-09T09:05:01;0.20;;;0.20;;
60292;SDS011;52402;52.670;6.750;2023-07-09T09:10:13;0.20;;;0.20;;
60292;SDS011;52402;52.670;6.750;2023-07-09T09:12:46;0.20;;;0.20;;
60292;SDS011;52402;52.670;6.750;2023-07-09T09:15:21;0.30;;;0.30;;
60292;SDS011;52402;52.670;6.750;2023-07-09T09:17:48;0.30;;;0.30;;
60292;SDS011;52402;52.670;6.750;2023-07-09T09:20:21;0.35;;;0.35;;
60292;SDS011;52402;52.670;6.750;2023-07-09T09:22:50;0.30;;;0.30;;
60292;SDS011;52402;52.670;6.750;2023-07-09T09:25:29;0.30;;;0.30;;
60292;SDS011;52402;52.670;6.750;2023-07-09T09:27:58;0.30;;;0.30;;
60292;SDS011;52402;52.670;6.750;2023-07-09T09:30:25;0.30;;;0.30;;
60292;SDS011;52402;52.670;6.750;2023-07-09T09:32:55;0.30;;;0.30;;
60292;SDS011;52402;52.670;6.750;2023-07-09T09:35:30;0.30;;;0.30;;
60292;SDS011;52402;52.670;6.750;2023-07-09T09:37:58;0.30;;;0.30;;
60292;SDS011;52402;52.670;6.750;2023-07-09T09:40:26;0.30;;;0.30;;
60292;SDS011;52402;52.670;6.750;2023-07-09T09:42:58;0.35;;;0.35;;
60292;SDS011;52402;52.670;6.750;2023-07-09T09:45:28;0.22;;;0.22;;
60292;SDS011;52402;52.670;6.750;2023-07-09T09:48:00;0.30;;;0.30;;
60292;SDS011;52402;52.670;6.750;2023-07-09T09:50:27;0.40;;;0.40;;
60292;SDS011;52402;52.670;6.750;2023-07-09T09:52:56;0.30;;;0.30;;
60292;SDS011;52402;52.670;6.750;2023-07-09T09:55:24;0.30;;;0.30;;
60292;SDS011;52402;52.670;6.750;2023-07-09T09:57:53;0.30;;;0.30;;
60292;SDS011;52402;52.670;6.750;2023-07-09T10:00:24;0.30;;;0.30;;
60292;SDS011;52402;52.670;6.750;2023-07-09T10:02:56;0.35;;;0.35;;
60292;SDS011;52402;52.670;6.750;2023-07-09T10:05:31;0.30;;;0.30;;
60292;SDS011;52402;52.670;6.750;2023-07-09T10:08:09;0.30;;;0.30;;
60292;SDS011;52402;52.670;6.750;2023-07-09T10:10:42;0.30;;;0.30;;
60292;SDS011;52402;52.670;6.750;2023-07-09T10:15:44;0.40;;;0.40;;
60292;SDS011;52402;52.670;6.750;2023-07-09T10:18:34;0.30;;;0.30;;
60292;SDS011;52402;52.670;6.750;2023-07-09T10:21:19;0.30;;;0.30;;
60292;SDS011;52402;52.670;6.750;2023-07-09T10:26:32;0.30;;;0.30;;
60292;SDS011;52402;52.670;6.750;2023-07-09T10:38:07;0.30;;;0.30;;
60292;SDS011;52402;52.670;6.750;2023-07-09T10:40:58;0.30;;;0.30;;
60292;SDS011;52402;52.670;6.750;2023-07-09T10:43:31;0.25;;;0.25;;
60292;SDS011;52402;52.670;6.750;2023-07-09T10:46:15;0.30;;;0.30;;
60292;SDS011;52402;52.670;6.750;2023-07-09T10:48:45;0.30;;;0.30;;
60292;SDS011;52402;52.670;6.750;2023-07-09T10:51:19;0.30;;;0.30;;
60292;SDS011;52402;52.670;6.750;2023-07-09T10:56:48;0.32;;;0.32;;
60292;SDS011;52402;52.670;6.750;2023-07-09T10:59:31;0.30;;;0.30;;
60292;SDS011;52402;52.670;6.750;2023-07-09T11:04:43;0.30;;;0.30;;
60292;SDS011;52402;52.670;6.750;2023-07-09T11:07:13;0.30;;;0.30;;
60292;SDS011;52402;52.670;6.750;2023-07-09T11:09:43;0.30;;;0.30;;
60292;SDS011;52402;52.670;6.750;2023-07-09T11:12:12;0.38;;;0.38;;
60292;SDS011;52402;52.670;6.750;2023-07-09T11:14:49;0.30;;;0.30;;
60292;SDS011;52402;52.670;6.750;2023-07-09T11:17:24;0.35;;;0.35;;
60292;SDS011;52402;52.670;6.750;2023-07-09T11:19:56;0.30;;;0.30;;
60292;SDS011;52402;52.670;6.750;2023-07-09T11:22:35;0.38;;;0.38;;
60292;SDS011;52402;52.670;6.750;2023-07-09T11:25:08;0.30;;;0.30;;
60292;SDS011;52402;52.670;6.750;2023-07-09T11:27:44;0.38;;;0.38;;
60292;SDS011;52402;52.670;6.750;2023-07-09T11:30:19;0.40;;;0.40;;
60292;SDS011;52402;52.670;6.750;2023-07-09T11:32:47;0.30;;;0.30;;
60292;SDS011;52402;52.670;6.750;2023-07-09T11:35:29;0.30;;;0.30;;
60292;SDS011;52402;52.670;6.750;2023-07-09T11:38:20;0.30;;;0.30;;
60292;SDS011;52402;52.670;6.750;2023-07-09T11:40:51;0.30;;;0.30;;
60292;SDS011;52402;52.670;6.750;2023-07-09T11:46:10;0.40;;;0.40;;
60292;SDS011;52402;52.670;6.750;2023-07-09T11:48:39;0.30;;;0.30;;
60292;SDS011;52402;52.670;6.750;2023-07-09T11:51:08;0.30;;;0.30;;
60292;SDS011;52402;52.670;6.750;2023-07-09T11:53:42;0.30;;;0.30;;
60292;SDS011;52402;52.670;6.750;2023-07-09T11:56:09;0.30;;;0.30;;
60292;SDS011;52402;52.670;6.750;2023-07-09T11:58:36;0.38;;;0.38;;
60292;SDS011;52402;52.670;6.750;2023-07-09T12:01:14;0.40;;;0.40;;
60292;SDS011;52402;52.670;6.750;2023-07-09T12:03:43;0.50;;;0.50;;
60292;SDS011;52402;52.670;6.750;2023-07-09T12:06:21;0.30;;;0.30;;
60292;SDS011;52402;52.670;6.750;2023-07-09T12:08:55;0.38;;;0.38;;
60292;SDS011;52402;52.670;6.750;2023-07-09T12:13:53;0.40;;;0.40;;
60292;SDS011;52402;52.670;6.750;2023-07-09T12:16:26;0.40;;;0.40;;
60292;SDS011;52402;52.670;6.750;2023-07-09T12:18:54;0.50;;;0.50;;
60292;SDS011;52402;52.670;6.750;2023-07-09T12:21:21;0.40;;;0.40;;
60292;SDS011;52402;52.670;6.750;2023-07-09T12:23:49;0.30;;;0.30;;
60292;SDS011;52402;52.670;6.750;2023-07-09T12:26:16;0.40;;;0.40;;
60292;SDS011;52402;52.670;6.750;2023-07-09T12:28:48;0.40;;;0.40;;
60292;SDS011;52402;52.670;6.750;2023-07-09T12:31:25;0.40;;;0.40;;
60292;SDS011;52402;52.670;6.750;2023-07-09T12:33:53;0.40;;;0.40;;
60292;SDS011;52402;52.670;6.750;2023-07-09T12:36:20;0.40;;;0.40;;
60292;SDS011;52402;52.670;6.750;2023-07-09T12:38:47;0.40;;;0.40;;
60292;SDS011;52402;52.670;6.750;2023-07-09T12:43:45;0.40;;;0.40;;
60292;SDS011;52402;52.670;6.750;2023-07-09T12:46:11;0.40;;;0.40;;
60292;SDS011;52402;52.670;6.750;2023-07-09T12:48:38;0.40;;;0.40;;
60292;SDS011;52402;52.670;6.750;2023-07-09T12:51:06;0.40;;;0.40;;
60292;SDS011;52402;52.670;6.750;2023-07-09T12:53:33;0.40;;;0.40;;
60292;SDS011;52402;52.670;6.750;2023-07-09T12:56:01;0.40;;;0.40;;
60292;SDS011;52402;52.670;6.750;2023-07-09T12:58:36;0.40;;;0.40;;
60292;SDS011;52402;52.670;6.750;2023-07-09T13:01:13;0.40;;;0.40;;
60292;SDS011;52402;52.670;6.750;2023-07-09T13:03:41;0.40;;;0.40;;
60292;SDS011;52402;52.670;6.750;2023-07-09T13:06:27;0.40;;;0.40;;
60292;SDS011;52402;52.670;6.750;2023-07-09T13:08:56;0.50;;;0.50;;
60292;SDS011;52402;52.670;6.750;2023-07-09T13:11:31;0.40;;;0.40;;
60292;SDS011;52402;52.670;6.750;2023-07-09T13:14:02;0.40;;;0.40;;
60292;SDS011;52402;52.670;6.750;2023-07-09T13:16:34;0.30;;;0.30;;
60292;SDS011;52402;52.670;6.750;2023-07-09T13:19:03;0.40;;;0.40;;
60292;SDS011;52402;52.670;6.750;2023-07-09T13:21:29;0.38;;;0.38;;
60292;SDS011;52402;52.670;6.750;2023-07-09T13:23:55;0.43;;;0.43;;
60292;SDS011;52402;52.670;6.750;2023-07-09T13:26:20;0.40;;;0.40;;
60292;SDS011;52402;52.670;6.750;2023-07-09T13:28:46;0.40;;;0.40;;
60292;SDS011;52402;52.670;6.750;2023-07-09T13:31:16;0.40;;;0.40;;
60292;SDS011;52402;52.670;6.750;2023-07-09T13:33:50;0.40;;;0.40;;
60292;SDS011;52402;52.670;6.750;2023-07-09T13:36:18;0.40;;;0.40;;
60292;SDS011;52402;52.670;6.750;2023-07-09T13:38:44;0.40;;;0.40;;
60292;SDS011;52402;52.670;6.750;2023-07-09T13:41:11;0.40;;;0.40;;
60292;SDS011;52402;52.670;6.750;2023-07-09T13:43:40;0.30;;;0.30;;
60292;SDS011;52402;52.670;6.750;2023-07-09T13:46:11;0.40;;;0.40;;
60292;SDS011;52402;52.670;6.750;2023-07-09T13:48:38;0.38;;;0.38;;
60292;SDS011;52402;52.670;6.750;2023-07-09T13:51:12;0.30;;;0.30;;
60292;SDS011;52402;52.670;6.750;2023-07-09T13:53:49;0.30;;;0.30;;
60292;SDS011;52402;52.670;6.750;2023-07-09T13:56:18;0.40;;;0.40;;
60292;SDS011;52402;52.670;6.750;2023-07-09T13:58:44;0.40;;;0.40;;
60292;SDS011;52402;52.670;6.750;2023-07-09T14:01:21;0.40;;;0.40;;
60292;SDS011;52402;52.670;6.750;2023-07-09T14:03:48;0.40;;;0.40;;
60292;SDS011;52402;52.670;6.750;2023-07-09T14:06:15;0.40;;;0.40;;
60292;SDS011;52402;52.670;6.750;2023-07-09T14:08:42;0.40;;;0.40;;
60292;SDS011;52402;52.670;6.750;2023-07-09T14:11:12;0.30;;;0.30;;
60292;SDS011;52402;52.670;6.750;2023-07-09T14:13:40;0.40;;;0.40;;
60292;SDS011;52402;52.670;6.750;2023-07-09T14:16:09;0.40;;;0.40;;
60292;SDS011;52402;52.670;6.750;2023-07-09T14:18:36;0.40;;;0.40;;
60292;SDS011;52402;52.670;6.750;2023-07-09T14:21:08;0.30;;;0.30;;
60292;SDS011;52402;52.670;6.750;2023-07-09T14:23:44;0.40;;;0.40;;
60292;SDS011;52402;52.670;6.750;2023-07-09T14:26:09;0.30;;;0.30;;
60292;SDS011;52402;52.670;6.750;2023-07-09T14:28:35;0.30;;;0.30;;
60292;SDS011;52402;52.670;6.750;2023-07-09T14:31:04;0.30;;;0.30;;
60292;SDS011;52402;52.670;6.750;2023-07-09T14:33:35;0.40;;;0.40;;
60292;SDS011;52402;52.670;6.750;2023-07-09T14:36:00;0.40;;;0.40;;
60292;SDS011;52402;52.670;6.750;2023-07-09T14:38:26;0.40;;;0.40;;
60292;SDS011;52402;52.670;6.750;2023-07-09T14:40:54;0.45;;;0.45;;
60292;SDS011;52402;52.670;6.750;2023-07-09T14:45:47;0.40;;;0.40;;
60292;SDS011;52402;52.670;6.750;2023-07-09T14:48:18;0.30;;;0.30;;
60292;SDS011;52402;52.670;6.750;2023-07-09T14:50:45;0.30;;;0.30;;
60292;SDS011;52402;52.670;6.750;2023-07-09T14:53:19;0.30;;;0.30;;
60292;SDS011;52402;52.670;6.750;2023-07-09T14:58:18;0.40;;;0.40;;
60292;SDS011;52402;52.670;6.750;2023-07-09T15:00:45;0.35;;;0.35;;
60292;SDS011;52402;52.670;6.750;2023-07-09T15:03:22;0.30;;;0.30;;
60292;SDS011;52402;52.670;6.750;2023-07-09T15:05:52;0.30;;;0.30;;
60292;SDS011;52402;52.670;6.750;2023-07-09T15:08:23;0.30;;;0.30;;
60292;SDS011;52402;52.670;6.750;2023-07-09T15:10:51;0.40;;;0.40;;
60292;SDS011;52402;52.670;6.750;2023-07-09T15:13:19;0.30;;;0.30;;
60292;SDS011;52402;52.670;6.750;2023-07-09T15:15:54;0.30;;;0.30;;
60292;SDS011;52402;52.670;6.750;2023-07-09T15:18:20;0.30;;;0.30;;
60292;SDS011;52402;52.670;6.750;2023-07-09T15:20:52;0.30;;;0.30;;
60292;SDS011;52402;52.670;6.750;2023-07-09T15:23:21;0.30;;;0.30;;
60292;SDS011;52402;52.670;6.750;2023-07-09T15:25:53;0.30;;;0.30;;
60292;SDS011;52402;52.670;6.750;2023-07-09T15:28:18;0.30;;;0.30;;
60292;SDS011;52402;52.670;6.750;2023-07-09T15:30:46;0.30;;;0.30;;
60292;SDS011;52402;52.670;6.750;2023-07-09T15:33:13;0.30;;;0.30;;
60292;SDS011;52402;52.670;6.750;2023-07-09T15:35:42;0.30;;;0.30;;
60292;SDS011;52402;52.670;6.750;2023-07-09T15:38:31;0.30;;;0.30;;